sensor_id;sensor_type;location;lat;lon;timestamp;temperature;humidity
56512;DHT22;42408;53.238;5.686;2023-11-21T00:01:54;10.60;99.90
56512;DHT22;42408;53.238;5.686;2023-11-21T00:04:20;10.60;99.90
56512;DHT22;42408;53.238;5.686;2023-11-21T00:06:46;10.60;99.90
56512;DHT22;42408;53.238;5.686;2023-11-21T00:09:13;10.60;99.90
56512;DHT22;42408;53.238;5.686;2023-11-21T00:11:41;10.60;99.90
56512;DHT22;42408;53.238;5.686;2023-11-21T00:14:07;10.60;99.90
56512;DHT22;42408;53.238;5.686;2023-11-21T00:16:33;10.70;99.90
56512;DHT22;42408;53.238;5.686;2023-11-21T00:18:59;10.60;99.90
56512;DHT22;42408;53.238;5.686;2023-11-21T00:21:25;10.60;99.90
56512;DHT22;42408;53.238;5.686;2023-11-21T00:23:51;10.60;99.90
56512;DHT22;42408;53.238;5.686;2023-11-21T00:26:16;10.60;99.90
56512;DHT22;42408;53.238;5.686;2023-11-21T00:28:42;10.70;99.90
56512;DHT22;42408;53.238;5.686;2023-11-21T00:31:08;10.60;99.90
56512;DHT22;42408;53.238;5.686;2023-11-21T00:33:33;10.70;99.90
56512;DHT22;42408;53.238;5.686;2023-11-21T00:35:59;10.70;99.90
56512;DHT22;42408;53.238;5.686;2023-11-21T00:38:26;10.60;99.90
56512;DHT22;42408;53.238;5.686;2023-11-21T00:40:53;10.60;99.90
56512;DHT22;42408;53.238;5.686;2023-11-21T00:43:24;10.70;99.90
56512;DHT22;42408;53.238;5.686;2023-11-21T00:45:50;10.70;99.90
56512;DHT22;42408;53.238;5.686;2023-11-21T00:48:16;10.70;99.90
56512;DHT22;42408;53.238;5.686;2023-11-21T00:50:44;10.60;99.90
56512;DHT22;42408;53.238;5.686;2023-11-21T00:53:10;10.60;99.90
56512;DHT22;42408;53.238;5.686;2023-11-21T00:55:37;10.70;99.90
56512;DHT22;42408;53.238;5.686;2023-11-21T00:58:03;10.70;99.90
56512;DHT22;42408;53.238;5.686;2023-11-21T01:00:29;10.70;99.90
56512;DHT22;42408;53.238;5.686;2023-11-21T01:02:55;10.70;99.90
56512;DHT22;42408;53.238;5.686;2023-11-21T01:05:21;10.70;99.90
56512;DHT22;42408;53.238;5.686;2023-11-21T01:07:47;10.70;99.90
56512;DHT22;42408;53.238;5.686;2023-11-21T01:10:12;10.70;99.90
56512;DHT22;42408;53.238;5.686;2023-11-21T01:12:38;10.70;99.90
56512;DHT22;42408;53.238;5.686;2023-11-21T01:15:05;10.70;99.90
56512;DHT22;42408;53.238;5.686;2023-11-21T01:17:34;10.70;99.90
56512;DHT22;42408;53.238;5.686;2023-11-21T01:20:01;10.80;99.90
56512;DHT22;42408;53.238;5.686;2023-11-21T01:22:27;10.80;99.90
56512;DHT22;42408;53.238;5.686;2023-11-21T01:24:53;10.70;99.90
56512;DHT22;42408;53.238;5.686;2023-11-21T01:27:20;10.70;99.90
56512;DHT22;42408;53.238;5.686;2023-11-21T01:29:46;10.80;99.90
56512;DHT22;42408;53.238;5.686;2023-11-21T01:32:11;10.80;99.90
56512;DHT22;42408;53.238;5.686;2023-11-21T01:34:37;10.80;99.90
56512;DHT22;42408;53.238;5.686;2023-11-21T01:37:03;10.80;99.90
56512;DHT22;42408;53.238;5.686;2023-11-21T01:39:30;10.80;99.90
56512;DHT22;42408;53.238;5.686;2023-11-21T01:41:57;10.80;99.90
56512;DHT22;42408;53.238;5.686;2023-11-21T01:44:25;10.80;99.90
56512;DHT22;42408;53.238;5.686;2023-11-21T01:46:51;10.80;99.90
56512;DHT22;42408;53.238;5.686;2023-11-21T01:49:17;10.80;99.90
56512;DHT22;42408;53.238;5.686;2023-11-21T01:51:48;10.80;99.90
56512;DHT22;42408;53.238;5.686;2023-11-21T01:54:16;10.80;99.90
56512;DHT22;42408;53.238;5.686;2023-11-21T01:56:45;10.80;99.90
56512;DHT22;42408;53.238;5.686;2023-11-21T01:59:12;10.80;99.90
56512;DHT22;42408;53.238;5.686;2023-11-21T02:01:39;10.80;99.90
56512;DHT22;42408;53.238;5.686;2023-11-21T02:04:06;10.80;99.90
56512;DHT22;42408;53.238;5.686;2023-11-21T02:06:33;10.80;99.90
56512;DHT22;42408;53.238;5.686;2023-11-21T02:08:59;10.80;99.90
56512;DHT22;42408;53.238;5.686;2023-11-21T02:11:25;10.80;99.90
56512;DHT22;42408;53.238;5.686;2023-11-21T02:13:53;10.80;99.90
56512;DHT22;42408;53.238;5.686;2023-11-21T02:16:19;10.80;99.90
56512;DHT22;42408;53.238;5.686;2023-11-21T02:18:47;10.80;99.90
56512;DHT22;42408;53.238;5.686;2023-11-21T02:21:14;10.80;99.90
56512;DHT22;42408;53.238;5.686;2023-11-21T02:23:40;10.80;99.90
56512;DHT22;42408;53.238;5.686;2023-11-21T02:26:10;10.80;99.90
56512;DHT22;42408;53.238;5.686;2023-11-21T02:28:36;10.80;99.90
56512;DHT22;42408;53.238;5.686;2023-11-21T02:31:02;10.80;99.90
56512;DHT22;42408;53.238;5.686;2023-11-21T02:33:30;10.80;99.90
56512;DHT22;42408;53.238;5.686;2023-11-21T02:36:02;10.80;99.90
56512;DHT22;42408;53.238;5.686;2023-11-21T02:38:28;10.80;99.90
56512;DHT22;42408;53.238;5.686;2023-11-21T02:40:54;10.80;99.90
56512;DHT22;42408;53.238;5.686;2023-11-21T02:43:20;10.80;99.90
56512;DHT22;42408;53.238;5.686;2023-11-21T02:45:45;10.80;99.90
56512;DHT22;42408;53.238;5.686;2023-11-21T02:48:11;10.80;99.90
56512;DHT22;42408;53.238;5.686;2023-11-21T02:50:36;10.80;99.90
56512;DHT22;42408;53.238;5.686;2023-11-21T02:53:03;10.80;99.90
56512;DHT22;42408;53.238;5.686;2023-11-21T02:55:31;10.80;99.90
56512;DHT22;42408;53.238;5.686;2023-11-21T02:58:00;10.80;99.90
56512;DHT22;42408;53.238;5.686;2023-11-21T03:00:25;10.80;99.90
56512;DHT22;42408;53.238;5.686;2023-11-21T03:02:51;10.70;99.90
56512;DHT22;42408;53.238;5.686;2023-11-21T03:05:17;10.80;99.90
56512;DHT22;42408;53.238;5.686;2023-11-21T03:07:42;10.70;99.90
56512;DHT22;42408;53.238;5.686;2023-11-21T03:10:09;10.70;99.90
56512;DHT22;42408;53.238;5.686;2023-11-21T03:12:36;10.70;99.90
56512;DHT22;42408;53.238;5.686;2023-11-21T03:15:03;10.70;99.90
56512;DHT22;42408;53.238;5.686;2023-11-21T03:17:29;10.80;99.90
56512;DHT22;42408;53.238;5.686;2023-11-21T03:19:55;10.70;99.90
56512;DHT22;42408;53.238;5.686;2023-11-21T03:22:20;10.80;99.90
56512;DHT22;42408;53.238;5.686;2023-11-21T03:24:46;10.80;99.90
56512;DHT22;42408;53.238;5.686;2023-11-21T03:27:11;10.80;99.90
56512;DHT22;42408;53.238;5.686;2023-11-21T03:29:37;10.80;99.90
56512;DHT22;42408;53.238;5.686;2023-11-21T03:32:03;10.80;99.90
56512;DHT22;42408;53.238;5.686;2023-11-21T03:34:29;10.80;99.90
56512;DHT22;42408;53.238;5.686;2023-11-21T03:36:55;10.80;99.90
56512;DHT22;42408;53.238;5.686;2023-11-21T03:39:21;10.80;99.90
56512;DHT22;42408;53.238;5.686;2023-11-21T03:41:48;10.80;99.90
56512;DHT22;42408;53.238;5.686;2023-11-21T03:44:14;11.90;99.90
56512;DHT22;42408;53.238;5.686;2023-11-21T03:46:39;10.80;99.90
56512;DHT22;42408;53.238;5.686;2023-11-21T03:49:05;10.80;99.90
56512;DHT22;42408;53.238;5.686;2023-11-21T03:51:31;11.00;99.90
56512;DHT22;42408;53.238;5.686;2023-11-21T03:53:56;10.70;99.90
56512;DHT22;42408;53.238;5.686;2023-11-21T03:56:22;10.70;99.90
56512;DHT22;42408;53.238;5.686;2023-11-21T03:58:48;10.70;99.90
56512;DHT22;42408;53.238;5.686;2023-11-21T04:01:24;10.70;99.90
56512;DHT22;42408;53.238;5.686;2023-11-21T04:03:50;10.60;99.90
56512;DHT22;42408;53.238;5.686;2023-11-21T04:06:17;10.60;99.90
56512;DHT22;42408;53.238;5.686;2023-11-21T04:08:43;10.60;99.90
56512;DHT22;42408;53.238;5.686;2023-11-21T04:11:10;10.60;99.90
56512;DHT22;42408;53.238;5.686;2023-11-21T04:13:38;10.50;99.90
56512;DHT22;42408;53.238;5.686;2023-11-21T04:16:05;10.30;99.90
56512;DHT22;42408;53.238;5.686;2023-11-21T04:18:31;10.50;99.90
56512;DHT22;42408;53.238;5.686;2023-11-21T04:20:57;10.50;99.90
56512;DHT22;42408;53.238;5.686;2023-11-21T04:23:22;10.50;99.90
56512;DHT22;42408;53.238;5.686;2023-11-21T04:25:48;10.40;99.90
56512;DHT22;42408;53.238;5.686;2023-11-21T04:28:13;10.50;99.90
56512;DHT22;42408;53.238;5.686;2023-11-21T04:30:39;10.40;99.90
56512;DHT22;42408;53.238;5.686;2023-11-21T04:33:06;10.50;99.90
56512;DHT22;42408;53.238;5.686;2023-11-21T04:35:33;10.40;99.90
56512;DHT22;42408;53.238;5.686;2023-11-21T04:37:58;10.40;99.90
56512;DHT22;42408;53.238;5.686;2023-11-21T04:40:24;10.40;99.90
56512;DHT22;42408;53.238;5.686;2023-11-21T04:42:49;10.40;99.90
56512;DHT22;42408;53.238;5.686;2023-11-21T04:45:15;10.40;99.90
56512;DHT22;42408;53.238;5.686;2023-11-21T04:47:41;10.40;99.90
56512;DHT22;42408;53.238;5.686;2023-11-21T04:50:07;10.50;99.90
56512;DHT22;42408;53.238;5.686;2023-11-21T04:52:32;10.50;99.90
56512;DHT22;42408;53.238;5.686;2023-11-21T04:55:01;10.50;99.90
56512;DHT22;42408;53.238;5.686;2023-11-21T04:57:27;10.50;99.90
56512;DHT22;42408;53.238;5.686;2023-11-21T04:59:54;11.50;99.90
56512;DHT22;42408;53.238;5.686;2023-11-21T05:02:19;10.50;99.90
56512;DHT22;42408;53.238;5.686;2023-11-21T05:04:47;10.40;99.90
56512;DHT22;42408;53.238;5.686;2023-11-21T05:07:13;10.40;99.90
56512;DHT22;42408;53.238;5.686;2023-11-21T05:09:42;10.30;99.90
56512;DHT22;42408;53.238;5.686;2023-11-21T05:12:09;10.30;99.90
56512;DHT22;42408;53.238;5.686;2023-11-21T05:14:36;10.30;99.90
56512;DHT22;42408;53.238;5.686;2023-11-21T05:17:01;10.20;99.90
56512;DHT22;42408;53.238;5.686;2023-11-21T05:19:27;10.20;99.90
56512;DHT22;42408;53.238;5.686;2023-11-21T05:21:52;10.20;99.90
56512;DHT22;42408;53.238;5.686;2023-11-21T05:24:18;10.20;99.90
56512;DHT22;42408;53.238;5.686;2023-11-21T05:26:44;10.10;99.90
56512;DHT22;42408;53.238;5.686;2023-11-21T05:29:09;10.10;99.90
56512;DHT22;42408;53.238;5.686;2023-11-21T05:31:36;10.10;99.90
56512;DHT22;42408;53.238;5.686;2023-11-21T05:34:03;10.00;99.90
56512;DHT22;42408;53.238;5.686;2023-11-21T05:36:28;10.00;99.90
56512;DHT22;42408;53.238;5.686;2023-11-21T05:38:54;10.30;99.90
56512;DHT22;42408;53.238;5.686;2023-11-21T05:41:20;9.90;99.90
56512;DHT22;42408;53.238;5.686;2023-11-21T05:43:45;9.90;99.90
56512;DHT22;42408;53.238;5.686;2023-11-21T05:46:11;9.90;99.90
56512;DHT22;42408;53.238;5.686;2023-11-21T05:48:36;9.90;99.90
56512;DHT22;42408;53.238;5.686;2023-11-21T05:51:04;9.90;99.90
56512;DHT22;42408;53.238;5.686;2023-11-21T05:53:30;9.80;99.90
56512;DHT22;42408;53.238;5.686;2023-11-21T05:55:56;9.90;99.90
56512;DHT22;42408;53.238;5.686;2023-11-21T05:58:22;9.90;99.90
56512;DHT22;42408;53.238;5.686;2023-11-21T06:00:47;9.80;99.90
56512;DHT22;42408;53.238;5.686;2023-11-21T06:03:13;9.80;99.90
56512;DHT22;42408;53.238;5.686;2023-11-21T06:05:39;9.80;99.90
56512;DHT22;42408;53.238;5.686;2023-11-21T06:08:04;9.80;99.90
56512;DHT22;42408;53.238;5.686;2023-11-21T06:10:32;9.80;99.90
56512;DHT22;42408;53.238;5.686;2023-11-21T06:12:57;9.70;99.90
56512;DHT22;42408;53.238;5.686;2023-11-21T06:15:23;9.70;99.90
56512;DHT22;42408;53.238;5.686;2023-11-21T06:17:49;9.70;99.90
56512;DHT22;42408;53.238;5.686;2023-11-21T06:20:18;9.70;99.90
56512;DHT22;42408;53.238;5.686;2023-11-21T06:22:48;9.70;99.90
56512;DHT22;42408;53.238;5.686;2023-11-21T06:25:16;9.70;99.90
56512;DHT22;42408;53.238;5.686;2023-11-21T06:27:44;9.70;99.90
56512;DHT22;42408;53.238;5.686;2023-11-21T06:30:11;9.70;99.90
56512;DHT22;42408;53.238;5.686;2023-11-21T06:32:38;9.70;99.90
56512;DHT22;42408;53.238;5.686;2023-11-21T06:35:05;9.60;99.90
56512;DHT22;42408;53.238;5.686;2023-11-21T06:37:31;9.70;99.90
56512;DHT22;42408;53.238;5.686;2023-11-21T06:39:58;9.70;99.90
56512;DHT22;42408;53.238;5.686;2023-11-21T06:42:27;9.60;99.90
56512;DHT22;42408;53.238;5.686;2023-11-21T06:44:54;9.60;99.90
56512;DHT22;42408;53.238;5.686;2023-11-21T06:47:23;9.60;99.90
56512;DHT22;42408;53.238;5.686;2023-11-21T06:49:52;9.60;99.90
56512;DHT22;42408;53.238;5.686;2023-11-21T06:52:18;9.60;99.90
56512;DHT22;42408;53.238;5.686;2023-11-21T06:54:44;9.60;99.90
56512;DHT22;42408;53.238;5.686;2023-11-21T06:57:11;9.60;99.90
56512;DHT22;42408;53.238;5.686;2023-11-21T06:59:37;9.60;99.90
56512;DHT22;42408;53.238;5.686;2023-11-21T07:02:03;9.60;99.90
56512;DHT22;42408;53.238;5.686;2023-11-21T07:04:30;9.60;99.90
56512;DHT22;42408;53.238;5.686;2023-11-21T07:06:56;9.60;99.90
56512;DHT22;42408;53.238;5.686;2023-11-21T07:09:21;9.60;99.90
56512;DHT22;42408;53.238;5.686;2023-11-21T07:11:51;9.60;99.90
56512;DHT22;42408;53.238;5.686;2023-11-21T07:14:17;9.60;99.90
56512;DHT22;42408;53.238;5.686;2023-11-21T07:16:45;9.60;99.90
56512;DHT22;42408;53.238;5.686;2023-11-21T07:19:11;9.60;99.90
56512;DHT22;42408;53.238;5.686;2023-11-21T07:21:38;9.60;99.90
56512;DHT22;42408;53.238;5.686;2023-11-21T07:24:05;9.60;99.90
56512;DHT22;42408;53.238;5.686;2023-11-21T07:26:32;9.60;99.90
56512;DHT22;42408;53.238;5.686;2023-11-21T07:28:58;9.60;99.90
56512;DHT22;42408;53.238;5.686;2023-11-21T07:31:24;9.60;99.90
56512;DHT22;42408;53.238;5.686;2023-11-21T07:33:50;9.60;99.90
56512;DHT22;42408;53.238;5.686;2023-11-21T07:36:21;9.50;99.90
56512;DHT22;42408;53.238;5.686;2023-11-21T07:38:47;9.50;99.90
56512;DHT22;42408;53.238;5.686;2023-11-21T07:41:13;9.50;99.90
56512;DHT22;42408;53.238;5.686;2023-11-21T07:43:41;9.50;99.90
56512;DHT22;42408;53.238;5.686;2023-11-21T07:46:07;9.50;99.90
56512;DHT22;42408;53.238;5.686;2023-11-21T07:48:34;9.50;99.90
56512;DHT22;42408;53.238;5.686;2023-11-21T07:51:02;9.70;99.90
56512;DHT22;42408;53.238;5.686;2023-11-21T07:53:32;9.50;99.90
56512;DHT22;42408;53.238;5.686;2023-11-21T07:56:09;9.50;99.90
56512;DHT22;42408;53.238;5.686;2023-11-21T07:58:35;9.50;99.90
56512;DHT22;42408;53.238;5.686;2023-11-21T08:01:01;9.50;99.90
56512;DHT22;42408;53.238;5.686;2023-11-21T08:03:27;9.50;99.90
56512;DHT22;42408;53.238;5.686;2023-11-21T08:05:55;9.50;99.90
56512;DHT22;42408;53.238;5.686;2023-11-21T08:08:22;9.50;99.90
56512;DHT22;42408;53.238;5.686;2023-11-21T08:10:47;9.50;99.90
56512;DHT22;42408;53.238;5.686;2023-11-21T08:13:33;9.40;99.90
56512;DHT22;42408;53.238;5.686;2023-11-21T08:15:59;9.50;99.90
56512;DHT22;42408;53.238;5.686;2023-11-21T08:18:28;9.50;99.90
56512;DHT22;42408;53.238;5.686;2023-11-21T08:20:55;9.50;99.90
56512;DHT22;42408;53.238;5.686;2023-11-21T08:23:21;9.50;99.90
56512;DHT22;42408;53.238;5.686;2023-11-21T08:25:50;9.50;99.90
56512;DHT22;42408;53.238;5.686;2023-11-21T08:28:16;9.50;99.90
56512;DHT22;42408;53.238;5.686;2023-11-21T08:30:42;9.60;99.90
56512;DHT22;42408;53.238;5.686;2023-11-21T08:33:08;9.50;99.90
56512;DHT22;42408;53.238;5.686;2023-11-21T08:35:37;9.50;99.90
56512;DHT22;42408;53.238;5.686;2023-11-21T08:38:03;9.60;99.90
56512;DHT22;42408;53.238;5.686;2023-11-21T08:40:29;9.60;99.90
56512;DHT22;42408;53.238;5.686;2023-11-21T08:42:55;9.60;99.90
56512;DHT22;42408;53.238;5.686;2023-11-21T08:45:22;9.60;99.90
56512;DHT22;42408;53.238;5.686;2023-11-21T08:47:47;9.60;99.90
56512;DHT22;42408;53.238;5.686;2023-11-21T08:50:14;9.60;99.90
56512;DHT22;42408;53.238;5.686;2023-11-21T08:52:40;9.60;99.90
56512;DHT22;42408;53.238;5.686;2023-11-21T08:55:07;9.70;99.90
56512;DHT22;42408;53.238;5.686;2023-11-21T08:57:36;9.60;99.90
56512;DHT22;42408;53.238;5.686;2023-11-21T09:00:06;9.60;99.90
56512;DHT22;42408;53.238;5.686;2023-11-21T09:02:37;9.60;99.90
56512;DHT22;42408;53.238;5.686;2023-11-21T09:05:05;9.60;99.90
56512;DHT22;42408;53.238;5.686;2023-11-21T09:07:31;9.60;99.90
56512;DHT22;42408;53.238;5.686;2023-11-21T09:09:57;9.70;99.90
56512;DHT22;42408;53.238;5.686;2023-11-21T09:12:22;9.70;99.90
56512;DHT22;42408;53.238;5.686;2023-11-21T09:14:50;9.70;99.90
56512;DHT22;42408;53.238;5.686;2023-11-21T09:17:16;9.70;99.90
56512;DHT22;42408;53.238;5.686;2023-11-21T09:19:42;9.70;99.90
56512;DHT22;42408;53.238;5.686;2023-11-21T09:22:10;9.70;99.90
56512;DHT22;42408;53.238;5.686;2023-11-21T09:24:36;9.70;99.90
56512;DHT22;42408;53.238;5.686;2023-11-21T09:27:03;9.70;99.90
56512;DHT22;42408;53.238;5.686;2023-11-21T09:29:29;9.80;99.90
56512;DHT22;42408;53.238;5.686;2023-11-21T09:31:55;9.80;99.90
56512;DHT22;42408;53.238;5.686;2023-11-21T09:34:22;9.80;99.90
56512;DHT22;42408;53.238;5.686;2023-11-21T09:36:48;9.80;99.90
56512;DHT22;42408;53.238;5.686;2023-11-21T09:39:14;9.80;99.90
56512;DHT22;42408;53.238;5.686;2023-11-21T09:41:49;9.90;99.90
56512;DHT22;42408;53.238;5.686;2023-11-21T09:44:18;10.00;99.90
56512;DHT22;42408;53.238;5.686;2023-11-21T09:46:47;10.00;99.90
56512;DHT22;42408;53.238;5.686;2023-11-21T09:49:20;10.10;99.90
56512;DHT22;42408;53.238;5.686;2023-11-21T09:51:48;10.10;99.90
56512;DHT22;42408;53.238;5.686;2023-11-21T09:54:15;10.10;99.90
56512;DHT22;42408;53.238;5.686;2023-11-21T09:56:41;10.10;99.90
56512;DHT22;42408;53.238;5.686;2023-11-21T09:59:11;10.10;99.90
56512;DHT22;42408;53.238;5.686;2023-11-21T10:01:38;10.00;99.90
56512;DHT22;42408;53.238;5.686;2023-11-21T10:04:06;10.00;99.90
56512;DHT22;42408;53.238;5.686;2023-11-21T10:06:40;10.00;99.90
56512;DHT22;42408;53.238;5.686;2023-11-21T10:09:12;9.90;99.90
56512;DHT22;42408;53.238;5.686;2023-11-21T10:11:42;9.90;99.90
56512;DHT22;42408;53.238;5.686;2023-11-21T10:14:10;9.90;99.90
56512;DHT22;42408;53.238;5.686;2023-11-21T10:16:38;9.90;99.90
56512;DHT22;42408;53.238;5.686;2023-11-21T10:19:05;9.90;99.90
56512;DHT22;42408;53.238;5.686;2023-11-21T10:21:35;9.90;99.90
56512;DHT22;42408;53.238;5.686;2023-11-21T10:24:00;9.90;99.90
56512;DHT22;42408;53.238;5.686;2023-11-21T10:26:29;9.90;99.90
56512;DHT22;42408;53.238;5.686;2023-11-21T10:29:01;9.80;99.90
56512;DHT22;42408;53.238;5.686;2023-11-21T10:31:32;9.80;99.90
56512;DHT22;42408;53.238;5.686;2023-11-21T10:34:16;9.70;99.90
56512;DHT22;42408;53.238;5.686;2023-11-21T10:36:42;9.70;99.90
56512;DHT22;42408;53.238;5.686;2023-11-21T10:39:08;9.70;99.90
56512;DHT22;42408;53.238;5.686;2023-11-21T10:41:35;9.60;99.90
56512;DHT22;42408;53.238;5.686;2023-11-21T10:44:01;9.60;99.90
56512;DHT22;42408;53.238;5.686;2023-11-21T10:46:32;9.60;99.90
56512;DHT22;42408;53.238;5.686;2023-11-21T10:48:58;9.60;99.90
56512;DHT22;42408;53.238;5.686;2023-11-21T10:51:23;9.60;99.90
56512;DHT22;42408;53.238;5.686;2023-11-21T10:53:53;9.60;99.90
56512;DHT22;42408;53.238;5.686;2023-11-21T10:56:22;9.50;99.90
56512;DHT22;42408;53.238;5.686;2023-11-21T10:58:51;9.50;99.90
56512;DHT22;42408;53.238;5.686;2023-11-21T11:01:19;9.60;99.90
56512;DHT22;42408;53.238;5.686;2023-11-21T11:03:47;9.50;99.90
56512;DHT22;42408;53.238;5.686;2023-11-21T11:06:14;9.50;99.90
56512;DHT22;42408;53.238;5.686;2023-11-21T11:08:40;9.60;99.90
56512;DHT22;42408;53.238;5.686;2023-11-21T11:11:07;9.60;99.90
56512;DHT22;42408;53.238;5.686;2023-11-21T11:13:33;9.60;99.90
56512;DHT22;42408;53.238;5.686;2023-11-21T11:16:00;9.70;99.90
56512;DHT22;42408;53.238;5.686;2023-11-21T11:18:27;9.70;99.90
56512;DHT22;42408;53.238;5.686;2023-11-21T11:21:31;9.80;99.90
56512;DHT22;42408;53.238;5.686;2023-11-21T11:24:16;9.90;99.90
56512;DHT22;42408;53.238;5.686;2023-11-21T11:26:56;10.00;99.90
56512;DHT22;42408;53.238;5.686;2023-11-21T11:32:16;9.90;99.90
56512;DHT22;42408;53.238;5.686;2023-11-21T11:37:47;9.90;99.90
56512;DHT22;42408;53.238;5.686;2023-11-21T11:40:13;9.90;99.90
56512;DHT22;42408;53.238;5.686;2023-11-21T11:42:58;9.90;99.90
56512;DHT22;42408;53.238;5.686;2023-11-21T11:45:34;9.90;99.90
56512;DHT22;42408;53.238;5.686;2023-11-21T11:48:01;9.90;99.90
56512;DHT22;42408;53.238;5.686;2023-11-21T11:50:27;9.90;99.90
56512;DHT22;42408;53.238;5.686;2023-11-21T11:52:54;10.00;99.90
56512;DHT22;42408;53.238;5.686;2023-11-21T11:55:21;9.90;99.90
56512;DHT22;42408;53.238;5.686;2023-11-21T11:57:52;10.00;99.90
56512;DHT22;42408;53.238;5.686;2023-11-21T12:03:02;10.10;99.90
56512;DHT22;42408;53.238;5.686;2023-11-21T12:05:29;10.20;99.90
56512;DHT22;42408;53.238;5.686;2023-11-21T12:08:05;10.20;99.90
56512;DHT22;42408;53.238;5.686;2023-11-21T12:10:33;10.30;99.90
56512;DHT22;42408;53.238;5.686;2023-11-21T12:13:07;10.30;99.90
56512;DHT22;42408;53.238;5.686;2023-11-21T12:15:34;10.40;99.90
56512;DHT22;42408;53.238;5.686;2023-11-21T12:18:00;10.40;99.90
56512;DHT22;42408;53.238;5.686;2023-11-21T12:20:27;10.40;99.90
56512;DHT22;42408;53.238;5.686;2023-11-21T12:22:58;10.40;99.90
56512;DHT22;42408;53.238;5.686;2023-11-21T12:25:28;10.50;99.90
56512;DHT22;42408;53.238;5.686;2023-11-21T12:27:55;10.90;99.90
56512;DHT22;42408;53.238;5.686;2023-11-21T12:30:22;10.40;99.90
56512;DHT22;42408;53.238;5.686;2023-11-21T12:32:50;10.40;99.90
56512;DHT22;42408;53.238;5.686;2023-11-21T12:35:23;10.50;99.90
56512;DHT22;42408;53.238;5.686;2023-11-21T12:37:49;10.50;99.90
56512;DHT22;42408;53.238;5.686;2023-11-21T12:40:18;10.40;99.90
56512;DHT22;42408;53.238;5.686;2023-11-21T12:42:57;10.40;99.90
56512;DHT22;42408;53.238;5.686;2023-11-21T12:45:28;10.30;99.90
56512;DHT22;42408;53.238;5.686;2023-11-21T12:47:58;10.20;99.90
56512;DHT22;42408;53.238;5.686;2023-11-21T12:50:29;10.20;99.90
56512;DHT22;42408;53.238;5.686;2023-11-21T12:55:25;10.20;99.90
56512;DHT22;42408;53.238;5.686;2023-11-21T12:57:55;10.20;99.90
56512;DHT22;42408;53.238;5.686;2023-11-21T13:03:05;10.20;99.90
56512;DHT22;42408;53.238;5.686;2023-11-21T13:05:36;10.20;99.90
56512;DHT22;42408;53.238;5.686;2023-11-21T13:08:06;10.30;99.90
56512;DHT22;42408;53.238;5.686;2023-11-21T13:10:42;10.40;99.90
56512;DHT22;42408;53.238;5.686;2023-11-21T13:13:11;10.60;99.90
56512;DHT22;42408;53.238;5.686;2023-11-21T13:15:48;10.70;99.90
56512;DHT22;42408;53.238;5.686;2023-11-21T13:18:14;10.70;99.90
56512;DHT22;42408;53.238;5.686;2023-11-21T13:20:40;10.80;99.90
56512;DHT22;42408;53.238;5.686;2023-11-21T13:23:10;10.80;99.90
56512;DHT22;42408;53.238;5.686;2023-11-21T13:25:40;10.70;99.90
56512;DHT22;42408;53.238;5.686;2023-11-21T13:28:11;10.60;99.90
56512;DHT22;42408;53.238;5.686;2023-11-21T13:30:37;10.50;99.90
56512;DHT22;42408;53.238;5.686;2023-11-21T13:33:06;10.50;99.90
56512;DHT22;42408;53.238;5.686;2023-11-21T13:35:37;10.50;99.90
56512;DHT22;42408;53.238;5.686;2023-11-21T13:38:08;10.40;99.90
56512;DHT22;42408;53.238;5.686;2023-11-21T13:40:34;10.30;99.90
56512;DHT22;42408;53.238;5.686;2023-11-21T13:43:05;10.20;99.90
56512;DHT22;42408;53.238;5.686;2023-11-21T13:45:39;10.00;99.90
56512;DHT22;42408;53.238;5.686;2023-11-21T13:48:05;9.90;99.90
56512;DHT22;42408;53.238;5.686;2023-11-21T13:50:38;9.80;99.90
56512;DHT22;42408;53.238;5.686;2023-11-21T13:53:04;9.70;99.90
56512;DHT22;42408;53.238;5.686;2023-11-21T13:55:44;9.60;99.90
56512;DHT22;42408;53.238;5.686;2023-11-21T13:58:11;9.40;99.90
56512;DHT22;42408;53.238;5.686;2023-11-21T14:00:38;9.40;99.90
56512;DHT22;42408;53.238;5.686;2023-11-21T14:03:11;9.40;99.90
56512;DHT22;42408;53.238;5.686;2023-11-21T14:05:44;9.30;99.90
56512;DHT22;42408;53.238;5.686;2023-11-21T14:08:12;9.30;99.90
56512;DHT22;42408;53.238;5.686;2023-11-21T14:10:42;9.30;99.90
56512;DHT22;42408;53.238;5.686;2023-11-21T14:13:11;9.30;99.90
56512;DHT22;42408;53.238;5.686;2023-11-21T14:15:39;9.20;99.90
56512;DHT22;42408;53.238;5.686;2023-11-21T14:18:09;9.20;99.90
56512;DHT22;42408;53.238;5.686;2023-11-21T14:20:43;9.10;99.90
56512;DHT22;42408;53.238;5.686;2023-11-21T14:23:10;9.10;99.90
56512;DHT22;42408;53.238;5.686;2023-11-21T14:25:37;9.10;99.90
56512;DHT22;42408;53.238;5.686;2023-11-21T14:28:03;9.00;99.90
56512;DHT22;42408;53.238;5.686;2023-11-21T14:30:32;9.00;99.90
56512;DHT22;42408;53.238;5.686;2023-11-21T14:32:58;9.00;99.90
56512;DHT22;42408;53.238;5.686;2023-11-21T14:35:24;9.00;99.90
56512;DHT22;42408;53.238;5.686;2023-11-21T14:37:50;8.90;99.90
56512;DHT22;42408;53.238;5.686;2023-11-21T14:40:16;8.90;99.90
56512;DHT22;42408;53.238;5.686;2023-11-21T14:42:43;8.80;99.90
56512;DHT22;42408;53.238;5.686;2023-11-21T14:45:13;8.70;99.90
56512;DHT22;42408;53.238;5.686;2023-11-21T14:47:42;8.70;99.90
56512;DHT22;42408;53.238;5.686;2023-11-21T14:50:13;8.70;99.90
56512;DHT22;42408;53.238;5.686;2023-11-21T14:52:57;8.60;99.90
56512;DHT22;42408;53.238;5.686;2023-11-21T14:55:24;8.60;99.90
56512;DHT22;42408;53.238;5.686;2023-11-21T14:57:56;8.70;99.90
56512;DHT22;42408;53.238;5.686;2023-11-21T15:00:22;8.60;99.90
56512;DHT22;42408;53.238;5.686;2023-11-21T15:03:00;8.60;99.90
56512;DHT22;42408;53.238;5.686;2023-11-21T15:05:27;8.70;99.90
56512;DHT22;42408;53.238;5.686;2023-11-21T15:07:53;8.70;99.90
56512;DHT22;42408;53.238;5.686;2023-11-21T15:10:22;8.70;99.90
56512;DHT22;42408;53.238;5.686;2023-11-21T15:12:56;8.60;99.90
56512;DHT22;42408;53.238;5.686;2023-11-21T15:15:23;8.60;99.90
56512;DHT22;42408;53.238;5.686;2023-11-21T15:17:48;8.50;99.90
56512;DHT22;42408;53.238;5.686;2023-11-21T15:20:14;8.50;99.90
56512;DHT22;42408;53.238;5.686;2023-11-21T15:22:46;8.40;99.90
56512;DHT22;42408;53.238;5.686;2023-11-21T15:25:12;8.30;99.90
56512;DHT22;42408;53.238;5.686;2023-11-21T15:27:38;8.30;99.90
56512;DHT22;42408;53.238;5.686;2023-11-21T15:30:05;8.20;99.90
56512;DHT22;42408;53.238;5.686;2023-11-21T15:32:31;8.10;99.90
56512;DHT22;42408;53.238;5.686;2023-11-21T15:34:57;8.10;99.90
56512;DHT22;42408;53.238;5.686;2023-11-21T15:37:22;8.00;99.90
56512;DHT22;42408;53.238;5.686;2023-11-21T15:39:54;8.00;99.90
56512;DHT22;42408;53.238;5.686;2023-11-21T15:42:20;7.90;99.90
56512;DHT22;42408;53.238;5.686;2023-11-21T15:44:46;7.90;99.90
56512;DHT22;42408;53.238;5.686;2023-11-21T15:47:11;7.80;99.90
56512;DHT22;42408;53.238;5.686;2023-11-21T15:49:37;7.80;99.90
56512;DHT22;42408;53.238;5.686;2023-11-21T15:52:05;7.70;99.90
56512;DHT22;42408;53.238;5.686;2023-11-21T15:54:32;7.70;99.90